Terminal Aerodrome Forecast
Issued by NWS

Home | Current Version | Previous Version | Text Only | Print | Product List | Glossary On
Versions: 1 2 3 4 5 6 7 8 9 10 11 12 13 14 15 16 17 18 19 20 21 22 23 24
778
FTUS46 KMFR 232038 AAB
TAFLMT
TAF AMD
KLMT 232038Z 2321/2418 VRB03KT P6SM FEW002 SCT045
      TEMPO 2321/2401 4SM BR BKN001
     FM240400 VRB03KT 1/2SM FZFG OVC002=

USA.gov is the U.S. government's official web portal to all federal, state and local government web resources and services.